createdAt,value
2023-07-16T00:03:23.566Z,41.75
2023-07-16T00:08:23.592Z,42.57
2023-07-16T00:13:23.704Z,42.7
2023-07-16T00:18:23.703Z,43.23
2023-07-16T00:23:23.679Z,43.6
2023-07-16T00:28:23.577Z,43.73
2023-07-16T00:33:23.658Z,43.65
2023-07-16T00:38:23.691Z,43.78
2023-07-16T00:43:23.600Z,43.69
2023-07-16T00:48:23.601Z,43.6
2023-07-16T00:53:23.604Z,43.64
2023-07-16T00:58:23.605Z,43.89
2023-07-16T01:03:23.657Z,43.98
2023-07-16T01:08:23.696Z,43.27
2023-07-16T01:13:23.597Z,42.97
2023-07-16T01:18:23.615Z,42.87
2023-07-16T01:23:23.616Z,42.84
2023-07-16T01:28:23.603Z,42.78
2023-07-16T01:33:23.620Z,42.66
2023-07-16T01:38:23.607Z,42.56
2023-07-16T01:43:23.626Z,42.43
2023-07-16T01:48:23.627Z,42.08
2023-07-16T01:53:23.638Z,42.22
2023-07-16T01:58:23.679Z,42.41
2023-07-16T02:03:23.618Z,42.54
2023-07-16T02:08:23.857Z,42.34
2023-07-16T02:13:23.622Z,42.22
2023-07-16T02:18:23.639Z,42.05
2023-07-16T02:23:23.885Z,42.07
2023-07-16T02:28:23.645Z,41.83
2023-07-16T02:33:23.646Z,41.71
2023-07-16T02:38:23.659Z,41.46
2023-07-16T02:43:23.657Z,41.54
2023-07-16T02:48:29.221Z,41.72
2023-07-16T02:53:23.655Z,41.81
2023-07-16T02:58:23.704Z,41.81
2023-07-16T03:03:23.678Z,41.91
2023-07-16T03:08:23.662Z,42.01
2023-07-16T03:13:23.683Z,42.12
2023-07-16T03:18:23.665Z,42.1
2023-07-16T03:23:23.654Z,42.17
2023-07-16T03:28:23.670Z,42.37
2023-07-16T03:33:23.671Z,42.56
2023-07-16T03:38:23.658Z,42.57
2023-07-16T03:43:23.675Z,42.51
2023-07-16T03:48:23.663Z,42.31
2023-07-16T03:53:23.799Z,42.32
2023-07-16T03:58:23.683Z,41.89
2023-07-16T04:03:23.936Z,41.87
2023-07-16T04:08:23.687Z,41.51
2023-07-16T04:13:23.673Z,41
2023-07-16T04:18:23.691Z,40.85
2023-07-16T04:23:23.677Z,41.06
2023-07-16T04:28:23.695Z,41.03
2023-07-16T04:33:23.697Z,41.32
2023-07-16T04:38:23.683Z,41.24
2023-07-16T04:43:23.701Z,41.32
2023-07-16T04:48:23.688Z,41.49
2023-07-16T04:53:23.706Z,41.39
2023-07-16T04:58:24.100Z,41.09
2023-07-16T05:03:23.759Z,41.17
2023-07-16T05:08:23.775Z,41.18
2023-07-16T05:13:23.757Z,41.03
2023-07-16T05:18:23.767Z,40.77
2023-07-16T05:23:23.930Z,40.27
2023-07-16T05:28:23.719Z,40.37
2023-07-16T05:33:23.889Z,39.84
2023-07-16T05:38:23.729Z,40.14
2023-07-16T05:43:23.727Z,40.04
2023-07-16T05:48:23.713Z,40.52
2023-07-16T05:53:23.731Z,40.48
2023-07-16T05:58:23.717Z,40.14
2023-07-16T06:03:23.735Z,40.15
2023-07-16T06:08:24.035Z,40.11
2023-07-16T06:13:23.724Z,39.19
2023-07-16T06:18:23.741Z,39.18
2023-07-16T06:23:23.728Z,39.4
2023-07-16T06:28:23.746Z,40.4
2023-07-16T06:33:23.748Z,40.07
2023-07-16T06:38:24.108Z,40.49
2023-07-16T06:43:24.101Z,40.2
2023-07-16T06:48:23.739Z,40.43
2023-07-16T06:53:23.757Z,40.5
2023-07-16T06:58:23.875Z,40.12
2023-07-16T07:03:23.814Z,40.12
2023-07-16T07:08:23.763Z,40.07
2023-07-16T07:13:23.951Z,39.99
2023-07-16T07:18:23.768Z,40.03
2023-07-16T07:23:23.755Z,40.08
2023-07-16T07:28:23.772Z,39.4
2023-07-16T07:33:23.758Z,39.14
2023-07-16T07:38:23.777Z,38.7
2023-07-16T07:43:23.779Z,38.24
2023-07-16T07:48:23.778Z,38.16
2023-07-16T07:53:23.783Z,38.7
2023-07-16T07:58:23.770Z,38.32
2023-07-16T08:08:29.376Z,37.3
2023-07-16T08:13:30.543Z,36.58
2023-07-16T08:18:30.370Z,36.65
2023-07-16T08:23:23.781Z,35.78
2023-07-16T08:28:23.852Z,34.99
2023-07-16T08:33:23.801Z,36.35
2023-07-16T08:38:23.805Z,32.56
2023-07-16T08:43:23.807Z,28.96
2023-07-16T08:48:23.794Z,32.71
2023-07-16T08:53:23.813Z,34.55
2023-07-16T08:58:23.799Z,36.87
2023-07-16T09:03:23.818Z,37.66
2023-07-16T09:08:23.819Z,36.97
2023-07-16T09:13:23.807Z,35.55
2023-07-16T09:18:24.151Z,33.74
2023-07-16T09:23:23.812Z,33.91
2023-07-16T09:28:23.879Z,33.33
2023-07-16T09:33:23.833Z,28.99
2023-07-16T09:38:23.836Z,26.19
2023-07-16T09:43:23.838Z,29.72
2023-07-16T09:48:35.005Z,32.82
2023-07-16T09:53:23.844Z,34.29
2023-07-16T09:58:23.868Z,36.2
2023-07-16T10:03:24.247Z,32.36
2023-07-16T10:08:23.852Z,27.59
2023-07-16T10:13:29.502Z,28.72
2023-07-16T10:18:23.859Z,30.08
2023-07-16T10:23:23.846Z,32.25
2023-07-16T10:28:29.457Z,34.02
2023-07-16T10:33:23.959Z,36.8
2023-07-16T10:38:24.091Z,33.07
2023-07-16T10:43:23.872Z,31.33
2023-07-16T10:48:23.860Z,31.68
2023-07-16T10:53:23.879Z,32.3
2023-07-16T10:58:24.088Z,32.56
2023-07-16T11:03:23.885Z,32.99
2023-07-16T11:08:23.910Z,32.39
2023-07-16T11:13:23.898Z,35.76
2023-07-16T11:18:23.892Z,36.83
2023-07-16T11:23:23.880Z,35.49
2023-07-16T11:28:23.899Z,36.73
2023-07-16T11:33:24.039Z,34.11
2023-07-16T11:38:23.905Z,34
2023-07-16T11:43:23.920Z,34.58
2023-07-16T11:48:23.894Z,32.31
2023-07-16T11:53:24.086Z,30.75
2023-07-16T11:58:35.095Z,31.59
2023-07-16T12:03:23.919Z,31.36
2023-07-16T12:08:23.963Z,29.28
2023-07-16T12:13:24.197Z,30.23
2023-07-16T12:18:23.928Z,30.76
2023-07-16T12:23:23.915Z,32.12
2023-07-16T12:28:23.933Z,32.88
2023-07-16T12:33:23.921Z,33.94
2023-07-16T12:38:23.940Z,31.52
2023-07-16T12:43:23.942Z,37.01
2023-07-16T12:48:23.970Z,37.27
2023-07-16T12:53:23.949Z,36.15
2023-07-16T12:58:23.957Z,34.45
2023-07-16T13:03:23.954Z,31.44
2023-07-16T13:08:23.942Z,30.22
2023-07-16T13:13:24.065Z,30.12
2023-07-16T13:18:24.004Z,30.84
2023-07-16T13:23:24.253Z,31.28
2023-07-16T13:28:23.969Z,31.51
2023-07-16T13:33:23.958Z,30.53
2023-07-16T13:38:23.975Z,30.81
2023-07-16T13:43:23.979Z,32.26
2023-07-16T13:48:23.982Z,35.28
2023-07-16T13:53:23.984Z,38.47
2023-07-16T13:58:23.972Z,36.73
2023-07-16T14:03:23.991Z,38.5
2023-07-16T14:13:24.226Z,38.23
2023-07-16T14:18:24.160Z,35.74
2023-07-16T14:23:23.989Z,32.86
2023-07-16T14:28:24.353Z,31.02
2023-07-16T14:33:23.992Z,31.43
2023-07-16T14:38:24.010Z,32
2023-07-16T14:43:24.014Z,33.65
2023-07-16T14:48:24.017Z,36.29
2023-07-16T14:53:24.019Z,38.02
2023-07-16T14:58:29.619Z,39.38
2023-07-16T15:03:24.026Z,39.9
2023-07-16T15:08:24.013Z,40.59
2023-07-16T15:13:24.080Z,41.92
2023-07-16T15:18:24.165Z,41.26
2023-07-16T15:23:24.062Z,38.87
2023-07-16T15:28:24.215Z,38.22
2023-07-16T15:33:24.252Z,38.28
2023-07-16T15:38:24.045Z,35.39
2023-07-16T15:43:24.033Z,33.74
2023-07-16T15:48:24.052Z,35.14
2023-07-16T15:53:24.054Z,36.27
2023-07-16T15:58:24.042Z,39.19
2023-07-16T16:03:24.101Z,41.01
2023-07-16T16:08:24.177Z,41.32
2023-07-16T16:13:24.066Z,39.88
2023-07-16T16:18:24.296Z,37.06
2023-07-16T16:23:24.072Z,36.24
2023-07-16T16:28:24.074Z,35.84
2023-07-16T16:33:24.062Z,36.37
2023-07-16T16:38:24.081Z,36.11
2023-07-16T16:43:24.067Z,37.84
2023-07-16T16:48:24.086Z,38.91
2023-07-16T16:53:24.088Z,40.53
2023-07-16T16:58:24.076Z,41.59
2023-07-16T17:03:24.095Z,41.83
2023-07-16T17:08:24.082Z,40.73
2023-07-16T17:13:24.100Z,39.17
2023-07-16T17:18:24.087Z,39.22
2023-07-16T17:23:24.106Z,39.01
2023-07-16T17:28:24.314Z,39.45
2023-07-16T17:33:29.677Z,39.83
2023-07-16T17:38:24.193Z,39.82
2023-07-16T17:43:24.101Z,39.93
2023-07-16T17:48:24.119Z,40.63
2023-07-16T17:53:24.122Z,40.48
2023-07-16T17:58:24.125Z,40.52
2023-07-16T18:03:24.139Z,40.77
2023-07-16T18:08:24.114Z,40.37
2023-07-16T18:13:24.338Z,40.34
2023-07-16T18:18:24.219Z,40.41
2023-07-16T18:23:24.137Z,40.02
2023-07-16T18:28:24.141Z,40.31
2023-07-16T18:33:24.134Z,40.65
2023-07-16T18:38:24.146Z,40.74
2023-07-16T18:43:24.342Z,40.35
2023-07-16T18:48:24.152Z,40.14
2023-07-16T18:53:24.193Z,39.81
2023-07-16T18:58:24.311Z,40.42
2023-07-16T19:03:24.160Z,41.02
2023-07-16T19:08:24.396Z,41.08
2023-07-16T19:13:24.165Z,41.19
2023-07-16T19:18:24.151Z,40.82
2023-07-16T19:23:24.170Z,41.04
2023-07-16T19:28:24.172Z,41.44
2023-07-16T19:33:24.209Z,41.81
2023-07-16T19:38:24.270Z,41.79
2023-07-16T19:43:24.164Z,41.82
2023-07-16T19:48:24.182Z,41.59
2023-07-16T19:53:24.170Z,41.85
2023-07-16T19:58:24.322Z,41.81
2023-07-16T20:03:24.190Z,41.69
2023-07-16T20:13:24.195Z,42
2023-07-16T20:18:24.182Z,41.79
2023-07-16T20:28:24.188Z,41.92
2023-07-16T20:33:24.498Z,41.67
2023-07-16T20:38:24.253Z,41.38
2023-07-16T20:43:24.300Z,41.64
2023-07-16T20:48:24.211Z,41.87
2023-07-16T20:53:30.772Z,42.02
2023-07-16T20:58:30.792Z,42.26
2023-07-16T21:03:29.805Z,41.67
2023-07-16T21:08:24.205Z,41.71
2023-07-16T21:13:24.224Z,41.8
2023-07-16T21:18:24.236Z,41.8
2023-07-16T21:23:24.228Z,41.61
2023-07-16T21:28:24.231Z,41.68
2023-07-16T21:33:24.233Z,41.52
2023-07-16T21:38:24.260Z,41.09
2023-07-16T21:43:24.221Z,41.38
2023-07-16T21:48:24.240Z,41.25
2023-07-16T21:53:24.226Z,40.99
2023-07-16T21:58:24.244Z,41.03
2023-07-16T22:03:24.466Z,41.03
2023-07-16T22:08:24.233Z,41.39
2023-07-16T22:13:24.251Z,41.01
2023-07-16T22:18:24.237Z,40.65
2023-07-16T22:23:24.255Z,40.16
2023-07-16T22:28:24.311Z,40.59
2023-07-16T22:33:29.848Z,40.35
2023-07-16T22:38:24.261Z,40.48
2023-07-16T22:43:24.249Z,40.93
2023-07-16T22:48:24.266Z,40.82
2023-07-16T22:53:24.553Z,40.87
2023-07-16T22:58:24.357Z,40.65
2023-07-16T23:03:24.602Z,40.67
2023-07-16T23:08:24.365Z,40.88
2023-07-16T23:13:24.278Z,40.79
2023-07-16T23:18:24.376Z,40.46
2023-07-16T23:23:24.285Z,40.18
2023-07-16T23:28:24.269Z,40.08
2023-07-16T23:33:24.287Z,40.24
2023-07-16T23:38:24.316Z,40.29
2023-07-16T23:43:24.275Z,40.1
2023-07-16T23:48:24.629Z,39.87
2023-07-16T23:53:24.560Z,39.7
2023-07-16T23:58:29.886Z,39.64
